sensor_id;sensor_type;location;lat;lon;timestamp;temperature;humidity
38941;DHT22;43236;47.208;7.518;2023-09-18T00:02:42;22.50;98.70
38941;DHT22;43236;47.208;7.518;2023-09-18T00:05:29;22.40;98.30
38941;DHT22;43236;47.208;7.518;2023-09-18T00:08:17;23.40;99.10
38941;DHT22;43236;47.208;7.518;2023-09-18T00:11:05;23.60;98.80
38941;DHT22;43236;47.208;7.518;2023-09-18T00:13:52;22.40;98.60
38941;DHT22;43236;47.208;7.518;2023-09-18T00:16:39;22.30;98.60
38941;DHT22;43236;47.208;7.518;2023-09-18T00:19:27;22.20;98.20
38941;DHT22;43236;47.208;7.518;2023-09-18T00:22:15;22.80;98.60
38941;DHT22;43236;47.208;7.518;2023-09-18T00:25:01;24.30;99.20
38941;DHT22;43236;47.208;7.518;2023-09-18T00:27:48;22.70;98.40
38941;DHT22;43236;47.208;7.518;2023-09-18T00:30:37;23.00;98.90
38941;DHT22;43236;47.208;7.518;2023-09-18T00:33:24;22.50;98.70
38941;DHT22;43236;47.208;7.518;2023-09-18T00:36:12;23.50;99.20
38941;DHT22;43236;47.208;7.518;2023-09-18T00:38:59;23.60;99.30
38941;DHT22;43236;47.208;7.518;2023-09-18T00:41:46;23.10;99.20
38941;DHT22;43236;47.208;7.518;2023-09-18T00:44:35;22.30;99.10
38941;DHT22;43236;47.208;7.518;2023-09-18T00:47:21;23.60;99.40
38941;DHT22;43236;47.208;7.518;2023-09-18T00:50:09;22.30;98.40
38941;DHT22;43236;47.208;7.518;2023-09-18T00:52:59;22.40;99.10
38941;DHT22;43236;47.208;7.518;2023-09-18T00:55:46;24.00;99.80
38941;DHT22;43236;47.208;7.518;2023-09-18T00:58:33;23.80;99.60
38941;DHT22;43236;47.208;7.518;2023-09-18T01:01:20;22.20;98.80
38941;DHT22;43236;47.208;7.518;2023-09-18T01:04:08;23.80;99.60
38941;DHT22;43236;47.208;7.518;2023-09-18T01:06:56;21.40;98.80
38941;DHT22;43236;47.208;7.518;2023-09-18T01:09:45;23.70;99.80
38941;DHT22;43236;47.208;7.518;2023-09-18T01:12:33;22.20;99.10
38941;DHT22;43236;47.208;7.518;2023-09-18T01:15:25;23.60;99.90
38941;DHT22;43236;47.208;7.518;2023-09-18T01:18:13;24.00;99.90
38941;DHT22;43236;47.208;7.518;2023-09-18T01:21:02;22.20;99.40
38941;DHT22;43236;47.208;7.518;2023-09-18T01:23:50;22.30;99.60
38941;DHT22;43236;47.208;7.518;2023-09-18T01:26:38;22.20;99.60
38941;DHT22;43236;47.208;7.518;2023-09-18T01:29:25;22.90;99.90
38941;DHT22;43236;47.208;7.518;2023-09-18T01:32:12;22.90;99.90
38941;DHT22;43236;47.208;7.518;2023-09-18T01:34:59;22.30;99.90
38941;DHT22;43236;47.208;7.518;2023-09-18T01:37:47;22.20;99.70
38941;DHT22;43236;47.208;7.518;2023-09-18T01:40:35;22.90;99.90
38941;DHT22;43236;47.208;7.518;2023-09-18T01:43:22;24.00;99.90
38941;DHT22;43236;47.208;7.518;2023-09-18T01:46:09;23.10;99.90
38941;DHT22;43236;47.208;7.518;2023-09-18T01:48:56;23.40;99.90
38941;DHT22;43236;47.208;7.518;2023-09-18T01:51:44;22.40;99.80
38941;DHT22;43236;47.208;7.518;2023-09-18T01:54:31;22.20;99.90
38941;DHT22;43236;47.208;7.518;2023-09-18T01:57:19;22.20;99.90
38941;DHT22;43236;47.208;7.518;2023-09-18T02:00:07;23.40;99.90
38941;DHT22;43236;47.208;7.518;2023-09-18T02:02:54;23.30;99.90
38941;DHT22;43236;47.208;7.518;2023-09-18T02:05:42;23.00;99.90
38941;DHT22;43236;47.208;7.518;2023-09-18T02:08:30;22.20;99.90
38941;DHT22;43236;47.208;7.518;2023-09-18T02:11:17;22.00;99.90
38941;DHT22;43236;47.208;7.518;2023-09-18T02:14:05;22.10;99.90
38941;DHT22;43236;47.208;7.518;2023-09-18T02:16:52;22.00;99.90
38941;DHT22;43236;47.208;7.518;2023-09-18T02:19:39;23.70;99.90
38941;DHT22;43236;47.208;7.518;2023-09-18T02:22:26;23.40;99.90
38941;DHT22;43236;47.208;7.518;2023-09-18T02:25:13;23.80;99.90
38941;DHT22;43236;47.208;7.518;2023-09-18T02:28:00;22.20;99.90
38941;DHT22;43236;47.208;7.518;2023-09-18T02:30:49;22.10;99.90
38941;DHT22;43236;47.208;7.518;2023-09-18T02:33:36;22.20;99.90
38941;DHT22;43236;47.208;7.518;2023-09-18T02:36:23;23.70;99.90
38941;DHT22;43236;47.208;7.518;2023-09-18T02:39:10;23.60;99.90
38941;DHT22;43236;47.208;7.518;2023-09-18T02:41:57;21.90;99.90
38941;DHT22;43236;47.208;7.518;2023-09-18T02:44:44;22.00;99.90
38941;DHT22;43236;47.208;7.518;2023-09-18T02:47:32;22.00;99.90
38941;DHT22;43236;47.208;7.518;2023-09-18T02:50:19;22.20;99.90
38941;DHT22;43236;47.208;7.518;2023-09-18T02:53:07;22.40;99.90
38941;DHT22;43236;47.208;7.518;2023-09-18T02:55:55;22.10;99.90
38941;DHT22;43236;47.208;7.518;2023-09-18T02:58:42;22.90;99.90
38941;DHT22;43236;47.208;7.518;2023-09-18T03:01:29;23.70;99.90
38941;DHT22;43236;47.208;7.518;2023-09-18T03:04:18;22.10;99.90
38941;DHT22;43236;47.208;7.518;2023-09-18T03:07:05;23.70;99.90
38941;DHT22;43236;47.208;7.518;2023-09-18T03:09:52;22.50;99.90
38941;DHT22;43236;47.208;7.518;2023-09-18T03:12:39;23.80;99.90
38941;DHT22;43236;47.208;7.518;2023-09-18T03:15:26;22.80;99.90
38941;DHT22;43236;47.208;7.518;2023-09-18T03:18:13;24.60;99.90
38941;DHT22;43236;47.208;7.518;2023-09-18T03:21:01;22.40;99.90
38941;DHT22;43236;47.208;7.518;2023-09-18T03:23:48;22.10;99.90
38941;DHT22;43236;47.208;7.518;2023-09-18T03:26:35;22.30;99.90
38941;DHT22;43236;47.208;7.518;2023-09-18T03:29:22;22.70;99.90
38941;DHT22;43236;47.208;7.518;2023-09-18T03:32:09;22.10;99.90
38941;DHT22;43236;47.208;7.518;2023-09-18T03:34:57;22.20;99.90
38941;DHT22;43236;47.208;7.518;2023-09-18T03:37:46;22.10;99.90
38941;DHT22;43236;47.208;7.518;2023-09-18T03:40:33;23.60;99.90
38941;DHT22;43236;47.208;7.518;2023-09-18T03:43:21;22.10;99.90
38941;DHT22;43236;47.208;7.518;2023-09-18T03:46:08;23.00;99.90
38941;DHT22;43236;47.208;7.518;2023-09-18T03:48:54;23.40;99.90
38941;DHT22;43236;47.208;7.518;2023-09-18T03:51:43;22.30;99.90
38941;DHT22;43236;47.208;7.518;2023-09-18T03:54:32;22.80;99.90
38941;DHT22;43236;47.208;7.518;2023-09-18T03:57:18;22.90;99.90
38941;DHT22;43236;47.208;7.518;2023-09-18T04:00:06;23.50;99.90
38941;DHT22;43236;47.208;7.518;2023-09-18T04:02:54;22.30;99.90
38941;DHT22;43236;47.208;7.518;2023-09-18T04:05:41;22.70;99.90
38941;DHT22;43236;47.208;7.518;2023-09-18T04:08:28;22.30;99.90
38941;DHT22;43236;47.208;7.518;2023-09-18T04:11:16;22.30;99.90
38941;DHT22;43236;47.208;7.518;2023-09-18T04:14:04;23.90;99.90
38941;DHT22;43236;47.208;7.518;2023-09-18T04:16:51;24.10;99.90
38941;DHT22;43236;47.208;7.518;2023-09-18T04:19:38;23.30;99.90
38941;DHT22;43236;47.208;7.518;2023-09-18T04:22:26;21.40;99.90
38941;DHT22;43236;47.208;7.518;2023-09-18T04:25:12;23.50;99.90
38941;DHT22;43236;47.208;7.518;2023-09-18T04:28:01;22.50;99.90
38941;DHT22;43236;47.208;7.518;2023-09-18T04:30:48;23.40;99.90
38941;DHT22;43236;47.208;7.518;2023-09-18T04:33:35;22.30;99.90
38941;DHT22;43236;47.208;7.518;2023-09-18T04:36:22;22.20;99.90
38941;DHT22;43236;47.208;7.518;2023-09-18T04:39:09;22.40;99.90
38941;DHT22;43236;47.208;7.518;2023-09-18T04:41:56;23.60;99.90
38941;DHT22;43236;47.208;7.518;2023-09-18T04:44:44;22.30;99.90
38941;DHT22;43236;47.208;7.518;2023-09-18T04:47:31;22.30;99.90
38941;DHT22;43236;47.208;7.518;2023-09-18T04:50:18;22.20;99.90
38941;DHT22;43236;47.208;7.518;2023-09-18T04:53:05;22.40;99.90
38941;DHT22;43236;47.208;7.518;2023-09-18T04:55:52;22.90;99.90
38941;DHT22;43236;47.208;7.518;2023-09-18T04:58:40;23.50;99.90
38941;DHT22;43236;47.208;7.518;2023-09-18T05:01:28;22.00;99.90
38941;DHT22;43236;47.208;7.518;2023-09-18T05:04:15;23.00;99.90
38941;DHT22;43236;47.208;7.518;2023-09-18T05:07:05;21.80;99.90
38941;DHT22;43236;47.208;7.518;2023-09-18T05:09:52;23.10;99.90
38941;DHT22;43236;47.208;7.518;2023-09-18T05:12:39;22.20;99.90
38941;DHT22;43236;47.208;7.518;2023-09-18T05:15:26;22.10;99.90
38941;DHT22;43236;47.208;7.518;2023-09-18T05:18:16;22.20;99.90
38941;DHT22;43236;47.208;7.518;2023-09-18T05:21:03;22.10;99.90
38941;DHT22;43236;47.208;7.518;2023-09-18T05:23:51;22.00;99.90
38941;DHT22;43236;47.208;7.518;2023-09-18T05:26:39;22.40;99.90
38941;DHT22;43236;47.208;7.518;2023-09-18T05:29:26;22.50;99.90
38941;DHT22;43236;47.208;7.518;2023-09-18T05:32:13;22.50;99.90
38941;DHT22;43236;47.208;7.518;2023-09-18T05:35:01;23.30;99.90
38941;DHT22;43236;47.208;7.518;2023-09-18T05:37:52;22.10;99.90
38941;DHT22;43236;47.208;7.518;2023-09-18T05:40:40;22.20;99.90
38941;DHT22;43236;47.208;7.518;2023-09-18T05:43:27;21.70;99.90
38941;DHT22;43236;47.208;7.518;2023-09-18T05:46:18;21.90;99.90
38941;DHT22;43236;47.208;7.518;2023-09-18T05:49:05;21.80;99.90
38941;DHT22;43236;47.208;7.518;2023-09-18T05:51:53;22.20;99.90
38941;DHT22;43236;47.208;7.518;2023-09-18T05:54:40;21.90;99.90
38941;DHT22;43236;47.208;7.518;2023-09-18T05:57:27;21.70;99.90
38941;DHT22;43236;47.208;7.518;2023-09-18T06:00:14;23.00;99.90
38941;DHT22;43236;47.208;7.518;2023-09-18T06:03:02;22.00;99.90
38941;DHT22;43236;47.208;7.518;2023-09-18T06:05:51;22.20;99.90
38941;DHT22;43236;47.208;7.518;2023-09-18T06:08:39;23.00;99.90
38941;DHT22;43236;47.208;7.518;2023-09-18T06:11:26;22.00;99.90
38941;DHT22;43236;47.208;7.518;2023-09-18T06:14:13;22.10;99.90
38941;DHT22;43236;47.208;7.518;2023-09-18T06:17:00;23.50;99.90
38941;DHT22;43236;47.208;7.518;2023-09-18T06:19:48;21.70;99.90
38941;DHT22;43236;47.208;7.518;2023-09-18T06:22:35;22.10;99.90
38941;DHT22;43236;47.208;7.518;2023-09-18T06:25:24;22.20;99.90
38941;DHT22;43236;47.208;7.518;2023-09-18T06:28:11;21.70;99.90
38941;DHT22;43236;47.208;7.518;2023-09-18T06:30:58;21.70;99.90
38941;DHT22;43236;47.208;7.518;2023-09-18T06:33:45;21.90;99.90
38941;DHT22;43236;47.208;7.518;2023-09-18T06:36:32;21.40;99.90
38941;DHT22;43236;47.208;7.518;2023-09-18T06:39:19;21.80;99.90
38941;DHT22;43236;47.208;7.518;2023-09-18T06:42:09;21.90;99.90
38941;DHT22;43236;47.208;7.518;2023-09-18T06:44:56;21.90;99.90
38941;DHT22;43236;47.208;7.518;2023-09-18T06:47:43;22.30;99.90
38941;DHT22;43236;47.208;7.518;2023-09-18T06:50:30;21.90;99.90
38941;DHT22;43236;47.208;7.518;2023-09-18T06:53:17;21.80;99.90
38941;DHT22;43236;47.208;7.518;2023-09-18T06:56:04;23.00;99.90
38941;DHT22;43236;47.208;7.518;2023-09-18T06:58:53;21.90;99.90
38941;DHT22;43236;47.208;7.518;2023-09-18T07:01:40;23.10;99.90
38941;DHT22;43236;47.208;7.518;2023-09-18T07:04:28;22.50;99.90
38941;DHT22;43236;47.208;7.518;2023-09-18T07:07:15;22.60;99.90
38941;DHT22;43236;47.208;7.518;2023-09-18T07:10:02;23.20;99.90
38941;DHT22;43236;47.208;7.518;2023-09-18T07:12:49;22.20;99.90
38941;DHT22;43236;47.208;7.518;2023-09-18T07:15:38;22.00;99.90
38941;DHT22;43236;47.208;7.518;2023-09-18T07:18:24;22.40;99.90
38941;DHT22;43236;47.208;7.518;2023-09-18T07:21:11;21.50;99.90
38941;DHT22;43236;47.208;7.518;2023-09-18T07:23:58;23.20;99.90
38941;DHT22;43236;47.208;7.518;2023-09-18T07:26:45;23.80;99.90
38941;DHT22;43236;47.208;7.518;2023-09-18T07:29:33;21.90;99.90
38941;DHT22;43236;47.208;7.518;2023-09-18T07:32:22;23.10;99.90
38941;DHT22;43236;47.208;7.518;2023-09-18T07:35:09;23.40;99.90
38941;DHT22;43236;47.208;7.518;2023-09-18T07:37:56;22.80;99.90
38941;DHT22;43236;47.208;7.518;2023-09-18T07:40:43;22.00;99.90
38941;DHT22;43236;47.208;7.518;2023-09-18T07:43:31;22.10;99.90
38941;DHT22;43236;47.208;7.518;2023-09-18T07:46:18;22.00;99.90
38941;DHT22;43236;47.208;7.518;2023-09-18T07:49:06;21.90;99.90
38941;DHT22;43236;47.208;7.518;2023-09-18T07:51:53;22.50;99.90
38941;DHT22;43236;47.208;7.518;2023-09-18T07:54:40;22.00;99.90
38941;DHT22;43236;47.208;7.518;2023-09-18T07:57:27;23.00;99.90
38941;DHT22;43236;47.208;7.518;2023-09-18T08:00:16;21.70;99.90
38941;DHT22;43236;47.208;7.518;2023-09-18T08:03:04;21.80;99.90
38941;DHT22;43236;47.208;7.518;2023-09-18T08:05:53;21.90;99.90
38941;DHT22;43236;47.208;7.518;2023-09-18T08:08:40;21.50;99.90
38941;DHT22;43236;47.208;7.518;2023-09-18T08:11:27;23.00;99.90
38941;DHT22;43236;47.208;7.518;2023-09-18T08:14:14;21.70;99.90
38941;DHT22;43236;47.208;7.518;2023-09-18T08:17:01;21.10;99.90
38941;DHT22;43236;47.208;7.518;2023-09-18T08:19:49;22.50;99.90
38941;DHT22;43236;47.208;7.518;2023-09-18T08:22:39;21.80;99.90
38941;DHT22;43236;47.208;7.518;2023-09-18T08:25:26;21.10;99.90
38941;DHT22;43236;47.208;7.518;2023-09-18T08:28:13;22.20;99.90
38941;DHT22;43236;47.208;7.518;2023-09-18T08:31:00;21.60;99.90
38941;DHT22;43236;47.208;7.518;2023-09-18T08:33:47;21.40;99.90
38941;DHT22;43236;47.208;7.518;2023-09-18T08:36:34;21.10;99.90
38941;DHT22;43236;47.208;7.518;2023-09-18T08:39:22;21.90;99.90
38941;DHT22;43236;47.208;7.518;2023-09-18T08:42:09;21.30;99.90
38941;DHT22;43236;47.208;7.518;2023-09-18T08:44:57;23.30;99.90
38941;DHT22;43236;47.208;7.518;2023-09-18T08:47:45;20.80;99.90
38941;DHT22;43236;47.208;7.518;2023-09-18T08:50:32;22.70;99.90
38941;DHT22;43236;47.208;7.518;2023-09-18T08:53:19;22.80;99.90
38941;DHT22;43236;47.208;7.518;2023-09-18T08:56:08;23.30;99.90
38941;DHT22;43236;47.208;7.518;2023-09-18T08:58:55;22.70;99.90
38941;DHT22;43236;47.208;7.518;2023-09-18T09:01:42;23.30;99.90
38941;DHT22;43236;47.208;7.518;2023-09-18T09:04:29;22.20;99.90
38941;DHT22;43236;47.208;7.518;2023-09-18T09:07:16;20.70;99.90
38941;DHT22;43236;47.208;7.518;2023-09-18T09:10:03;22.90;99.90
38941;DHT22;43236;47.208;7.518;2023-09-18T09:12:55;21.60;99.90
38941;DHT22;43236;47.208;7.518;2023-09-18T09:15:43;23.20;99.90
38941;DHT22;43236;47.208;7.518;2023-09-18T09:18:31;22.50;99.90
38941;DHT22;43236;47.208;7.518;2023-09-18T09:21:19;22.30;99.90
38941;DHT22;43236;47.208;7.518;2023-09-18T09:24:06;21.10;99.90
38941;DHT22;43236;47.208;7.518;2023-09-18T09:29:42;21.50;99.90
38941;DHT22;43236;47.208;7.518;2023-09-18T09:32:31;22.00;99.90
38941;DHT22;43236;47.208;7.518;2023-09-18T09:35:19;21.30;99.90
38941;DHT22;43236;47.208;7.518;2023-09-18T09:38:07;23.10;99.90
38941;DHT22;43236;47.208;7.518;2023-09-18T09:40:54;21.70;99.90
38941;DHT22;43236;47.208;7.518;2023-09-18T09:43:42;21.50;99.90
38941;DHT22;43236;47.208;7.518;2023-09-18T09:46:31;20.40;99.90
38941;DHT22;43236;47.208;7.518;2023-09-18T09:49:18;21.30;99.90
38941;DHT22;43236;47.208;7.518;2023-09-18T09:52:10;21.40;99.90
38941;DHT22;43236;47.208;7.518;2023-09-18T09:55:13;21.80;99.90
38941;DHT22;43236;47.208;7.518;2023-09-18T09:58:04;21.90;99.90
38941;DHT22;43236;47.208;7.518;2023-09-18T10:00:52;22.90;99.90
38941;DHT22;43236;47.208;7.518;2023-09-18T10:03:42;21.60;99.90
38941;DHT22;43236;47.208;7.518;2023-09-18T10:09:16;23.30;99.90
38941;DHT22;43236;47.208;7.518;2023-09-18T10:12:04;23.30;99.90
38941;DHT22;43236;47.208;7.518;2023-09-18T10:14:56;21.80;99.90
38941;DHT22;43236;47.208;7.518;2023-09-18T10:17:43;23.40;99.90
38941;DHT22;43236;47.208;7.518;2023-09-18T10:20:33;22.00;99.90
38941;DHT22;43236;47.208;7.518;2023-09-18T10:23:30;21.70;99.90
38941;DHT22;43236;47.208;7.518;2023-09-18T10:26:21;22.80;99.90
38941;DHT22;43236;47.208;7.518;2023-09-18T10:29:10;23.00;99.90
38941;DHT22;43236;47.208;7.518;2023-09-18T10:31:58;21.90;99.90
38941;DHT22;43236;47.208;7.518;2023-09-18T10:34:45;21.80;99.90
38941;DHT22;43236;47.208;7.518;2023-09-18T10:37:34;22.00;99.90
38941;DHT22;43236;47.208;7.518;2023-09-18T10:40:22;22.00;99.90
38941;DHT22;43236;47.208;7.518;2023-09-18T10:43:13;22.90;99.90
38941;DHT22;43236;47.208;7.518;2023-09-18T10:46:02;22.70;99.90
38941;DHT22;43236;47.208;7.518;2023-09-18T10:48:49;21.90;99.90
38941;DHT22;43236;47.208;7.518;2023-09-18T10:51:36;23.30;99.90
38941;DHT22;43236;47.208;7.518;2023-09-18T10:54:29;22.10;99.90
38941;DHT22;43236;47.208;7.518;2023-09-18T10:57:16;21.70;99.90
38941;DHT22;43236;47.208;7.518;2023-09-18T11:00:03;21.50;99.90
38941;DHT22;43236;47.208;7.518;2023-09-18T11:03:12;23.40;99.90
38941;DHT22;43236;47.208;7.518;2023-09-18T11:06:03;21.80;99.90
38941;DHT22;43236;47.208;7.518;2023-09-18T11:08:50;22.00;99.90
38941;DHT22;43236;47.208;7.518;2023-09-18T11:11:40;21.90;99.90
38941;DHT22;43236;47.208;7.518;2023-09-18T11:14:40;23.60;99.90
38941;DHT22;43236;47.208;7.518;2023-09-18T11:17:31;22.00;99.90
38941;DHT22;43236;47.208;7.518;2023-09-18T11:20:21;22.00;99.90
38941;DHT22;43236;47.208;7.518;2023-09-18T11:23:15;22.70;99.90
38941;DHT22;43236;47.208;7.518;2023-09-18T11:26:03;22.10;99.90
38941;DHT22;43236;47.208;7.518;2023-09-18T11:28:52;22.10;99.90
38941;DHT22;43236;47.208;7.518;2023-09-18T11:31:40;22.20;99.90
38941;DHT22;43236;47.208;7.518;2023-09-18T11:34:29;22.80;99.90
38941;DHT22;43236;47.208;7.518;2023-09-18T11:37:19;22.40;99.90
38941;DHT22;43236;47.208;7.518;2023-09-18T11:40:06;23.30;99.90
38941;DHT22;43236;47.208;7.518;2023-09-18T11:43:18;23.60;99.90
38941;DHT22;43236;47.208;7.518;2023-09-18T11:46:10;22.40;99.90
38941;DHT22;43236;47.208;7.518;2023-09-18T11:48:58;24.10;99.90
38941;DHT22;43236;47.208;7.518;2023-09-18T11:51:45;23.10;99.90
38941;DHT22;43236;47.208;7.518;2023-09-18T11:54:32;23.90;99.90
38941;DHT22;43236;47.208;7.518;2023-09-18T11:57:21;22.70;99.90
38941;DHT22;43236;47.208;7.518;2023-09-18T12:00:17;22.40;99.90
38941;DHT22;43236;47.208;7.518;2023-09-18T12:06:13;22.60;99.90
38941;DHT22;43236;47.208;7.518;2023-09-18T12:09:01;23.60;99.90
38941;DHT22;43236;47.208;7.518;2023-09-18T12:11:49;22.60;99.90
38941;DHT22;43236;47.208;7.518;2023-09-18T12:14:39;23.00;99.90
38941;DHT22;43236;47.208;7.518;2023-09-18T12:17:27;23.30;99.90
38941;DHT22;43236;47.208;7.518;2023-09-18T12:20:15;24.40;99.90
38941;DHT22;43236;47.208;7.518;2023-09-18T12:23:05;23.90;99.90
38941;DHT22;43236;47.208;7.518;2023-09-18T12:25:57;22.60;99.90
38941;DHT22;43236;47.208;7.518;2023-09-18T12:28:45;23.60;99.90
38941;DHT22;43236;47.208;7.518;2023-09-18T12:31:32;22.50;99.90
38941;DHT22;43236;47.208;7.518;2023-09-18T12:34:19;23.60;99.90
38941;DHT22;43236;47.208;7.518;2023-09-18T12:37:07;22.50;99.90
38941;DHT22;43236;47.208;7.518;2023-09-18T12:39:56;22.70;99.90
38941;DHT22;43236;47.208;7.518;2023-09-18T12:42:43;22.80;99.90
38941;DHT22;43236;47.208;7.518;2023-09-18T12:45:30;23.80;99.90
38941;DHT22;43236;47.208;7.518;2023-09-18T12:48:17;23.10;99.90
38941;DHT22;43236;47.208;7.518;2023-09-18T12:51:04;22.80;99.90
38941;DHT22;43236;47.208;7.518;2023-09-18T12:53:58;23.60;99.90
38941;DHT22;43236;47.208;7.518;2023-09-18T12:56:46;23.00;99.90
38941;DHT22;43236;47.208;7.518;2023-09-18T12:59:34;23.10;99.90
38941;DHT22;43236;47.208;7.518;2023-09-18T13:02:22;24.00;99.90
38941;DHT22;43236;47.208;7.518;2023-09-18T13:05:09;22.30;99.90
38941;DHT22;43236;47.208;7.518;2023-09-18T13:07:56;23.40;99.90
38941;DHT22;43236;47.208;7.518;2023-09-18T13:10:48;22.50;99.90
38941;DHT22;43236;47.208;7.518;2023-09-18T13:13:38;22.70;99.90
38941;DHT22;43236;47.208;7.518;2023-09-18T13:16:25;22.40;99.90
38941;DHT22;43236;47.208;7.518;2023-09-18T13:19:13;22.30;99.90
38941;DHT22;43236;47.208;7.518;2023-09-18T13:22:00;23.70;99.90
38941;DHT22;43236;47.208;7.518;2023-09-18T13:24:46;22.50;99.90
38941;DHT22;43236;47.208;7.518;2023-09-18T13:27:33;22.90;99.90
38941;DHT22;43236;47.208;7.518;2023-09-18T13:30:22;23.00;99.90
38941;DHT22;43236;47.208;7.518;2023-09-18T13:33:10;22.40;99.90
38941;DHT22;43236;47.208;7.518;2023-09-18T13:35:58;22.70;99.90
38941;DHT22;43236;47.208;7.518;2023-09-18T13:38:45;22.50;99.90
38941;DHT22;43236;47.208;7.518;2023-09-18T13:41:32;22.40;99.90
38941;DHT22;43236;47.208;7.518;2023-09-18T13:44:19;22.60;99.90
38941;DHT22;43236;47.208;7.518;2023-09-18T13:47:07;22.50;99.90
38941;DHT22;43236;47.208;7.518;2023-09-18T13:49:54;22.70;99.90
38941;DHT22;43236;47.208;7.518;2023-09-18T13:52:45;22.50;99.90
38941;DHT22;43236;47.208;7.518;2023-09-18T13:55:32;24.00;99.90
38941;DHT22;43236;47.208;7.518;2023-09-18T13:58:19;22.50;99.90
38941;DHT22;43236;47.208;7.518;2023-09-18T14:01:06;22.40;99.90
38941;DHT22;43236;47.208;7.518;2023-09-18T14:03:54;24.20;99.90
38941;DHT22;43236;47.208;7.518;2023-09-18T14:06:41;22.40;99.90
38941;DHT22;43236;47.208;7.518;2023-09-18T14:09:28;22.50;99.90
38941;DHT22;43236;47.208;7.518;2023-09-18T14:12:15;22.50;99.90
38941;DHT22;43236;47.208;7.518;2023-09-18T14:15:03;22.40;99.90
38941;DHT22;43236;47.208;7.518;2023-09-18T14:17:50;22.30;99.90
38941;DHT22;43236;47.208;7.518;2023-09-18T14:20:39;23.20;99.90
38941;DHT22;43236;47.208;7.518;2023-09-18T14:23:26;22.80;99.90
38941;DHT22;43236;47.208;7.518;2023-09-18T14:26:14;22.40;99.90
38941;DHT22;43236;47.208;7.518;2023-09-18T14:29:01;22.30;99.90
38941;DHT22;43236;47.208;7.518;2023-09-18T14:31:48;22.30;99.90
38941;DHT22;43236;47.208;7.518;2023-09-18T14:34:35;22.30;99.90
38941;DHT22;43236;47.208;7.518;2023-09-18T14:37:23;22.40;99.90
38941;DHT22;43236;47.208;7.518;2023-09-18T14:40:10;23.50;99.90
38941;DHT22;43236;47.208;7.518;2023-09-18T14:42:57;23.20;99.90
38941;DHT22;43236;47.208;7.518;2023-09-18T14:45:44;23.50;99.90
38941;DHT22;43236;47.208;7.518;2023-09-18T14:48:31;24.40;99.90
38941;DHT22;43236;47.208;7.518;2023-09-18T14:51:18;24.20;99.90
38941;DHT22;43236;47.208;7.518;2023-09-18T14:54:06;24.10;99.90
38941;DHT22;43236;47.208;7.518;2023-09-18T14:56:53;23.80;99.90
38941;DHT22;43236;47.208;7.518;2023-09-18T14:59:40;22.50;99.90
38941;DHT22;43236;47.208;7.518;2023-09-18T15:02:32;22.50;99.90
38941;DHT22;43236;47.208;7.518;2023-09-18T15:05:20;22.40;99.90
38941;DHT22;43236;47.208;7.518;2023-09-18T15:08:07;22.50;99.90
38941;DHT22;43236;47.208;7.518;2023-09-18T15:10:56;22.60;99.90
38941;DHT22;43236;47.208;7.518;2023-09-18T15:13:43;22.50;99.90
38941;DHT22;43236;47.208;7.518;2023-09-18T15:16:30;22.60;99.90
38941;DHT22;43236;47.208;7.518;2023-09-18T15:19:16;22.60;99.90
38941;DHT22;43236;47.208;7.518;2023-09-18T15:22:04;22.60;99.90
38941;DHT22;43236;47.208;7.518;2023-09-18T15:24:53;22.60;99.90
38941;DHT22;43236;47.208;7.518;2023-09-18T15:27:41;23.40;99.90
38941;DHT22;43236;47.208;7.518;2023-09-18T15:30:28;22.60;99.90
38941;DHT22;43236;47.208;7.518;2023-09-18T15:33:15;24.40;99.90
38941;DHT22;43236;47.208;7.518;2023-09-18T15:36:03;22.60;99.90
38941;DHT22;43236;47.208;7.518;2023-09-18T15:38:50;22.60;99.90
38941;DHT22;43236;47.208;7.518;2023-09-18T15:41:37;23.40;99.90
38941;DHT22;43236;47.208;7.518;2023-09-18T15:44:25;22.90;99.90
38941;DHT22;43236;47.208;7.518;2023-09-18T15:47:12;22.90;99.90
38941;DHT22;43236;47.208;7.518;2023-09-18T15:49:59;22.50;99.90
38941;DHT22;43236;47.208;7.518;2023-09-18T15:52:46;22.60;99.90
38941;DHT22;43236;47.208;7.518;2023-09-18T15:55:34;22.60;99.90
38941;DHT22;43236;47.208;7.518;2023-09-18T15:58:21;23.10;99.90
38941;DHT22;43236;47.208;7.518;2023-09-18T16:01:11;22.60;99.90
38941;DHT22;43236;47.208;7.518;2023-09-18T16:03:59;22.70;99.90
38941;DHT22;43236;47.208;7.518;2023-09-18T16:09:35;22.70;99.90
38941;DHT22;43236;47.208;7.518;2023-09-18T16:12:22;23.40;99.90
38941;DHT22;43236;47.208;7.518;2023-09-18T16:15:09;23.10;99.90
38941;DHT22;43236;47.208;7.518;2023-09-18T16:17:57;24.00;99.90
38941;DHT22;43236;47.208;7.518;2023-09-18T16:20:44;23.40;99.90
38941;DHT22;43236;47.208;7.518;2023-09-18T16:23:31;22.60;99.90
38941;DHT22;43236;47.208;7.518;2023-09-18T16:26:19;22.70;99.90
38941;DHT22;43236;47.208;7.518;2023-09-18T16:29:06;22.80;99.90
38941;DHT22;43236;47.208;7.518;2023-09-18T16:31:53;22.60;99.90
38941;DHT22;43236;47.208;7.518;2023-09-18T16:34:42;23.10;99.90
38941;DHT22;43236;47.208;7.518;2023-09-18T16:37:29;22.80;99.90
38941;DHT22;43236;47.208;7.518;2023-09-18T16:40:16;22.50;99.90
38941;DHT22;43236;47.208;7.518;2023-09-18T16:43:03;23.90;99.90
38941;DHT22;43236;47.208;7.518;2023-09-18T16:45:50;22.50;99.90
38941;DHT22;43236;47.208;7.518;2023-09-18T16:48:37;23.00;99.90
38941;DHT22;43236;47.208;7.518;2023-09-18T16:51:25;23.60;99.90
38941;DHT22;43236;47.208;7.518;2023-09-18T16:54:12;23.00;99.90
38941;DHT22;43236;47.208;7.518;2023-09-18T16:56:59;22.50;99.90
38941;DHT22;43236;47.208;7.518;2023-09-18T17:02:34;22.30;99.90
38941;DHT22;43236;47.208;7.518;2023-09-18T17:05:21;22.60;99.20
38941;DHT22;43236;47.208;7.518;2023-09-18T17:08:09;22.00;98.50
38941;DHT22;43236;47.208;7.518;2023-09-18T17:10:56;22.00;98.90
38941;DHT22;43236;47.208;7.518;2023-09-18T17:13:43;22.10;98.60
38941;DHT22;43236;47.208;7.518;2023-09-18T17:16:30;22.10;98.40
38941;DHT22;43236;47.208;7.518;2023-09-18T17:19:21;22.00;98.20
38941;DHT22;43236;47.208;7.518;2023-09-18T17:22:08;21.90;97.60
38941;DHT22;43236;47.208;7.518;2023-09-18T17:24:56;22.40;98.00
38941;DHT22;43236;47.208;7.518;2023-09-18T17:27:43;21.80;97.40
38941;DHT22;43236;47.208;7.518;2023-09-18T17:30:30;21.80;97.50
38941;DHT22;43236;47.208;7.518;2023-09-18T17:33:17;23.30;98.50
38941;DHT22;43236;47.208;7.518;2023-09-18T17:36:04;23.70;98.50
38941;DHT22;43236;47.208;7.518;2023-09-18T17:38:53;23.10;98.10
38941;DHT22;43236;47.208;7.518;2023-09-18T17:41:41;23.00;98.50
38941;DHT22;43236;47.208;7.518;2023-09-18T17:47:16;21.40;98.10
38941;DHT22;43236;47.208;7.518;2023-09-18T17:50:03;21.70;98.70
38941;DHT22;43236;47.208;7.518;2023-09-18T17:52:51;22.00;98.70
38941;DHT22;43236;47.208;7.518;2023-09-18T17:55:38;22.90;99.20
38941;DHT22;43236;47.208;7.518;2023-09-18T17:58:26;23.50;99.10